createdAt,value
2023-03-02T00:02:12.679Z,1.86
2023-03-02T00:04:49.095Z,1.79
2023-03-02T00:07:23.236Z,1.84
2023-03-02T00:09:54.172Z,1.83
2023-03-02T00:12:22.669Z,1.80
2023-03-02T00:14:52.405Z,1.81
2023-03-02T00:17:29.194Z,1.81
2023-03-02T00:20:10.592Z,1.83
2023-03-02T00:22:42.906Z,1.87
2023-03-02T00:25:14.204Z,1.88
2023-03-02T00:27:43.205Z,1.95
2023-03-02T00:30:14.822Z,1.94
2023-03-02T00:32:44.855Z,1.94
2023-03-02T00:35:14.434Z,1.94
2023-03-02T00:37:43.540Z,1.91
2023-03-02T00:40:13.331Z,1.87
2023-03-02T00:42:42.606Z,1.91
2023-03-02T00:45:12.955Z,2.04
2023-03-02T00:47:42.576Z,2.12
2023-03-02T00:50:12.294Z,2.14
2023-03-02T00:52:41.322Z,2.14
2023-03-02T00:55:10.853Z,2.09
2023-03-02T00:57:41.298Z,2.00
2023-03-02T04:00:49.160Z,2.80
2023-03-02T04:03:20.403Z,2.76
2023-03-02T04:05:50.613Z,2.79
2023-03-02T04:08:20.838Z,2.81
2023-03-02T04:10:50.264Z,2.76
2023-03-02T04:13:19.720Z,2.72
2023-03-02T04:15:49.108Z,2.71
2023-03-02T04:18:18.725Z,2.77
2023-03-02T04:20:48.515Z,2.77
2023-03-02T04:23:17.880Z,2.76
2023-03-02T04:25:48.772Z,2.74
2023-03-02T04:28:22.319Z,2.69
2023-03-02T04:30:51.846Z,2.67
2023-03-02T04:33:20.202Z,2.63
2023-03-02T04:35:51.383Z,2.64
2023-03-02T04:38:22.214Z,2.62
2023-03-02T04:40:51.982Z,2.55
2023-03-02T04:43:21.536Z,2.47
2023-03-02T04:45:51.221Z,2.46
2023-03-02T04:48:20.755Z,2.49
2023-03-02T04:50:50.266Z,2.49
2023-03-02T04:53:19.689Z,2.53
2023-03-02T04:55:48.805Z,2.59
2023-03-02T04:58:18.266Z,2.60
2023-03-02T05:00:47.380Z,2.67
2023-03-02T05:03:16.065Z,2.65
2023-03-02T05:05:45.276Z,2.60
2023-03-02T05:08:15.319Z,2.66
2023-03-02T05:10:44.617Z,2.74
2023-03-02T05:13:13.979Z,2.78
2023-03-02T05:15:43.888Z,2.74
2023-03-02T05:18:13.837Z,2.68
2023-03-02T05:20:42.103Z,2.62
2023-03-02T05:23:14.380Z,2.64
2023-03-02T05:25:43.636Z,2.60
2023-03-02T05:28:12.760Z,2.50
2023-03-02T05:30:42.647Z,2.42
2023-03-02T05:33:12.098Z,2.40
2023-03-02T05:35:41.300Z,2.34
2023-03-02T05:38:10.275Z,2.27
2023-03-02T05:40:41.278Z,2.26
2023-03-02T05:43:15.535Z,2.22
2023-03-02T05:45:45.149Z,2.26
2023-03-02T05:48:14.949Z,2.26
2023-03-02T05:50:43.564Z,2.29
2023-03-02T05:53:13.035Z,2.31
2023-03-02T05:55:42.298Z,2.30
2023-03-02T05:58:16.076Z,2.34
2023-03-02T06:00:46.761Z,2.46
2023-03-02T06:03:17.372Z,2.57
2023-03-02T06:05:51.361Z,2.55
2023-03-02T06:08:22.731Z,2.56
2023-03-02T06:10:56.895Z,2.65
2023-03-02T06:13:25.957Z,2.66
2023-03-02T06:15:56.139Z,2.64
2023-03-02T06:18:24.473Z,2.61
2023-03-02T06:20:53.836Z,2.64
2023-03-02T06:23:23.590Z,2.77
2023-03-02T06:25:52.765Z,2.84
2023-03-02T06:28:22.553Z,2.81
2023-03-02T06:30:52.759Z,2.78
2023-03-02T06:33:22.692Z,2.83
2023-03-02T06:35:52.494Z,2.82
2023-03-02T06:38:22.308Z,2.85
2023-03-02T06:40:51.799Z,3.01
2023-03-02T06:43:20.178Z,3.14
2023-03-02T06:45:51.638Z,3.22
2023-03-02T06:48:20.204Z,3.18
2023-03-02T06:50:49.346Z,3.09
2023-03-02T06:53:20.621Z,3.02
2023-03-02T06:55:50.836Z,3.05
2023-03-02T06:58:20.185Z,3.09
2023-03-02T07:00:49.572Z,3.17
2023-03-02T07:03:19.369Z,3.36
2023-03-02T07:05:49.272Z,3.57
2023-03-02T07:08:18.468Z,3.69
2023-03-02T07:10:47.898Z,3.72
2023-03-02T07:13:17.272Z,3.74
2023-03-02T07:15:46.964Z,3.75
2023-03-02T07:18:16.649Z,3.76
2023-03-02T07:20:44.989Z,3.76
2023-03-02T07:23:14.001Z,3.85
2023-03-02T07:25:43.434Z,3.91
2023-03-02T07:28:12.047Z,3.92
2023-03-02T07:30:41.078Z,3.92
2023-03-02T07:33:09.576Z,3.91
2023-03-02T07:35:38.879Z,3.81
2023-03-02T07:38:07.970Z,3.75
2023-03-02T07:40:40.309Z,3.70
2023-03-02T07:43:09.893Z,3.67
2023-03-02T07:45:39.715Z,3.64
2023-03-02T07:48:08.984Z,3.59
2023-03-02T07:50:38.119Z,3.48
2023-03-02T07:53:07.510Z,3.42
2023-03-02T07:55:40.770Z,3.47
2023-03-02T07:58:09.913Z,3.53
2023-03-02T08:00:42.604Z,3.52
2023-03-02T08:03:14.631Z,3.49
2023-03-02T08:05:43.831Z,3.48
2023-03-02T08:08:12.971Z,3.49
2023-03-02T08:10:42.583Z,3.52
2023-03-02T08:13:11.504Z,3.52
2023-03-02T08:15:39.814Z,3.57
2023-03-02T08:18:09.016Z,3.56
2023-03-02T08:20:38.810Z,3.58
2023-03-02T08:23:07.479Z,3.65
2023-03-02T08:25:39.286Z,3.76
2023-03-02T08:28:08.449Z,3.86
2023-03-02T08:30:38.117Z,3.93
2023-03-02T08:33:07.282Z,3.96
2023-03-02T08:35:36.781Z,4.01
2023-03-02T08:38:05.973Z,4.08
2023-03-02T08:40:35.518Z,4.18
2023-03-02T08:43:06.711Z,4.33
2023-03-02T08:45:37.754Z,4.44
2023-03-02T08:48:07.049Z,4.52
2023-03-02T08:50:36.398Z,4.61
2023-03-02T08:53:05.643Z,4.72
2023-03-02T08:55:38.202Z,4.79
2023-03-02T08:58:07.029Z,4.85
2023-03-02T09:00:36.414Z,4.87
2023-03-02T09:03:05.646Z,4.89
2023-03-02T09:05:38.059Z,4.91
2023-03-02T09:08:07.846Z,4.93
2023-03-02T09:10:37.411Z,4.94
2023-03-02T09:13:08.623Z,4.94
2023-03-02T09:15:38.223Z,4.95
2023-03-02T09:18:07.457Z,4.97
2023-03-02T09:20:36.715Z,5.01
2023-03-02T09:23:05.881Z,5.09
2023-03-02T09:25:34.997Z,5.13
2023-03-02T09:28:04.433Z,5.14
2023-03-02T09:30:33.661Z,5.13
2023-03-02T09:33:02.815Z,5.10
2023-03-02T09:35:31.902Z,5.14
2023-03-02T09:38:01.415Z,5.21
2023-03-02T09:40:32.755Z,5.24
2023-03-02T09:43:13.319Z,5.27
2023-03-02T09:46:10.944Z,5.29
2023-03-02T09:48:58.869Z,5.27
2023-03-02T09:51:59.241Z,5.27
2023-03-02T09:54:31.463Z,5.31
2023-03-02T09:57:02.510Z,5.31
2023-03-02T09:59:44.203Z,5.30
2023-03-02T10:02:19.583Z,5.29
2023-03-02T10:04:53.473Z,5.24
2023-03-02T10:07:29.735Z,5.19
2023-03-02T10:10:23.290Z,5.12
2023-03-02T10:13:00.240Z,5.09
2023-03-02T10:15:53.898Z,5.09
2023-03-02T10:18:34.264Z,5.11
2023-03-02T10:21:23.129Z,5.13
2023-03-02T10:24:37.779Z,5.11
2023-03-02T10:27:27.813Z,5.10
2023-03-02T10:30:03.658Z,5.16
2023-03-02T10:32:53.251Z,5.18
2023-03-02T10:35:25.880Z,5.19
2023-03-02T10:38:00.722Z,5.26
2023-03-02T10:40:44.510Z,5.31
2023-03-02T10:43:34.473Z,5.33
2023-03-02T10:46:08.944Z,5.37
2023-03-02T10:48:50.602Z,5.40
2023-03-02T10:51:29.306Z,5.46
2023-03-02T10:54:07.311Z,5.56
2023-03-02T10:56:36.405Z,5.64
2023-03-02T10:59:30.760Z,5.70
2023-03-02T11:01:59.510Z,5.73
2023-03-02T11:04:29.157Z,5.71
2023-03-02T11:07:09.419Z,5.70
2023-03-02T11:09:38.782Z,5.73
2023-03-02T11:12:15.801Z,5.77
2023-03-02T11:14:44.238Z,5.81
2023-03-02T11:17:40.520Z,5.82
2023-03-02T11:20:22.536Z,5.80
2023-03-02T11:23:00.118Z,5.84
2023-03-02T11:25:35.343Z,5.90
2023-03-02T11:28:28.054Z,5.95
2023-03-02T11:30:59.914Z,5.99
2023-03-02T11:33:44.007Z,6.05
2023-03-02T11:36:24.027Z,6.06
2023-03-02T11:38:56.133Z,6.06
2023-03-02T11:41:34.343Z,6.09
2023-03-02T11:44:17.298Z,6.06
2023-03-02T11:46:50.489Z,6.05
2023-03-02T11:49:28.198Z,6.11
2023-03-02T11:52:00.870Z,6.17
2023-03-02T11:54:44.904Z,6.20
2023-03-02T11:57:38.596Z,6.29
2023-03-02T12:00:39.300Z,6.30
2023-03-02T12:03:19.192Z,6.32
2023-03-02T12:06:02.470Z,6.40
2023-03-02T12:08:41.309Z,6.44
2023-03-02T12:11:19.153Z,6.44
2023-03-02T12:13:54.139Z,6.47
2023-03-02T12:16:36.230Z,6.51
2023-03-02T12:19:29.113Z,6.59
2023-03-02T12:22:02.435Z,6.69
2023-03-02T12:24:34.828Z,6.79
2023-03-02T12:27:15.561Z,6.87
2023-03-02T12:29:46.756Z,6.94
2023-03-02T12:32:30.381Z,7.08
2023-03-02T12:35:08.330Z,7.21
2023-03-02T12:37:57.493Z,7.29
2023-03-02T12:41:01.071Z,7.26
2023-03-02T12:43:33.108Z,7.20
2023-03-02T12:46:28.556Z,7.21
2023-03-02T12:48:59.460Z,7.31
2023-03-02T12:51:33.161Z,7.34
2023-03-02T12:54:27.372Z,7.36
2023-03-02T12:57:14.949Z,7.40
2023-03-02T12:59:51.623Z,7.42
2023-03-02T13:02:24.158Z,7.46
2023-03-02T13:04:56.566Z,7.44
2023-03-02T13:07:36.620Z,7.39
2023-03-02T13:10:27.068Z,7.35
2023-03-02T13:12:57.894Z,7.28
2023-03-02T13:15:29.311Z,7.22
2023-03-02T13:18:01.694Z,7.17
2023-03-02T13:20:34.352Z,7.16
2023-03-02T13:23:04.649Z,7.16
2023-03-02T13:25:34.201Z,7.13
2023-03-02T13:28:08.447Z,7.08
2023-03-02T13:30:46.179Z,7.04
2023-03-02T13:33:26.475Z,7.00
2023-03-02T13:35:56.670Z,6.99
2023-03-02T13:38:30.938Z,7.01
2023-03-02T13:41:02.541Z,6.99
2023-03-02T13:43:40.332Z,6.99
2023-03-02T13:46:11.939Z,7.05
2023-03-02T13:48:40.855Z,7.11
2023-03-02T13:51:18.520Z,7.13
2023-03-02T13:54:15.285Z,7.16
2023-03-02T13:56:45.377Z,7.22
2023-03-02T13:59:16.783Z,7.20
2023-03-02T14:01:46.335Z,7.19
2023-03-02T14:04:18.316Z,7.22
2023-03-02T14:06:48.025Z,7.26
2023-03-02T14:09:17.758Z,7.22
2023-03-02T14:11:50.996Z,7.16
2023-03-02T14:14:25.555Z,7.13
2023-03-02T14:16:54.364Z,7.11
2023-03-02T14:19:23.201Z,7.06
2023-03-02T14:21:51.728Z,7.02
2023-03-02T14:24:21.058Z,7.00
2023-03-02T14:26:51.044Z,7.00
2023-03-02T14:29:26.757Z,6.99
2023-03-02T14:31:58.281Z,6.99
2023-03-02T14:34:27.126Z,6.97
2023-03-02T14:37:00.205Z,6.96
2023-03-02T14:39:35.800Z,6.95
2023-03-02T14:42:06.597Z,6.94
2023-03-02T14:44:35.445Z,6.96
2023-03-02T14:47:04.560Z,7.00
2023-03-02T14:49:34.349Z,7.01
2023-03-02T14:52:03.980Z,6.99
2023-03-02T14:54:50.006Z,6.99
2023-03-02T14:57:27.163Z,7.00
2023-03-02T15:00:00.408Z,6.98
2023-03-02T15:02:29.981Z,6.96
2023-03-02T15:04:59.754Z,6.93
2023-03-02T15:07:29.310Z,6.92
2023-03-02T15:10:00.001Z,6.92
2023-03-02T15:12:29.370Z,6.88
2023-03-02T15:14:58.821Z,6.85
2023-03-02T15:17:28.080Z,6.82
2023-03-02T15:19:57.309Z,6.79
2023-03-02T15:22:26.632Z,6.74
2023-03-02T15:24:56.499Z,6.73
2023-03-02T15:27:25.613Z,6.67
2023-03-02T15:29:56.414Z,6.60
2023-03-02T15:32:26.856Z,6.59
2023-03-02T15:34:56.320Z,6.57
2023-03-02T15:37:25.442Z,6.56
2023-03-02T15:39:56.246Z,6.52
2023-03-02T15:42:25.429Z,6.48
2023-03-02T15:44:54.855Z,6.47
2023-03-02T15:47:23.941Z,6.44
2023-03-02T15:49:52.843Z,6.42
2023-03-02T15:52:22.132Z,6.36
2023-03-02T15:54:52.034Z,6.29
2023-03-02T15:57:20.734Z,6.22
2023-03-02T15:59:50.142Z,6.18
2023-03-02T16:02:19.406Z,6.15
2023-03-02T16:04:48.393Z,6.11
2023-03-02T16:07:17.073Z,6.08
2023-03-02T16:09:47.072Z,6.05
2023-03-02T16:12:15.862Z,6.01
2023-03-02T16:14:45.071Z,5.93
2023-03-02T16:17:14.324Z,5.89
2023-03-02T16:19:42.905Z,5.84
2023-03-02T16:22:11.407Z,5.80
2023-03-02T16:24:41.891Z,5.72
2023-03-02T16:27:10.671Z,5.65
2023-03-02T16:29:39.218Z,5.59
2023-03-02T16:32:09.256Z,5.53
2023-03-02T16:34:38.030Z,5.44
2023-03-02T16:37:06.546Z,5.37
2023-03-02T16:39:35.044Z,5.33
2023-03-02T16:42:04.597Z,5.27
2023-03-02T16:44:33.150Z,5.19
2023-03-02T16:47:01.533Z,5.11
2023-03-02T16:49:30.497Z,5.05
2023-03-02T16:51:59.852Z,4.97
2023-03-02T16:54:28.357Z,4.90
2023-03-02T16:56:56.738Z,4.84
2023-03-02T16:59:25.277Z,4.78
2023-03-02T17:01:54.981Z,4.72
2023-03-02T17:04:25.927Z,4.63
2023-03-02T17:07:02.408Z,4.58
2023-03-02T17:09:31.913Z,4.54
2023-03-02T17:12:00.361Z,4.51
2023-03-02T17:14:28.751Z,4.51
2023-03-02T17:16:57.076Z,4.46
2023-03-02T17:19:29.984Z,4.42
2023-03-02T17:22:00.323Z,4.38
2023-03-02T17:24:30.045Z,4.33
2023-03-02T17:26:58.566Z,4.23
2023-03-02T17:29:27.392Z,4.10
2023-03-02T17:31:55.906Z,4.03
2023-03-02T17:34:28.776Z,3.98
2023-03-02T17:37:01.538Z,3.92
2023-03-02T17:39:30.500Z,3.84
2023-03-02T17:41:59.046Z,3.76
2023-03-02T17:44:27.916Z,3.71
2023-03-02T17:46:56.578Z,3.63
2023-03-02T17:49:25.504Z,3.57
2023-03-02T17:51:54.040Z,3.52
2023-03-02T17:54:22.730Z,3.48
2023-03-02T17:56:51.209Z,3.43
2023-03-02T17:59:19.880Z,3.39
2023-03-02T18:01:48.876Z,3.33
2023-03-02T18:04:18.269Z,3.25
2023-03-02T18:06:46.913Z,3.19
2023-03-02T18:09:15.705Z,3.13
2023-03-02T18:11:44.278Z,3.08
2023-03-02T18:14:19.166Z,3.09
2023-03-02T18:16:48.553Z,3.06
2023-03-02T18:19:17.077Z,3.02
2023-03-02T18:21:45.548Z,2.94
2023-03-02T18:24:14.683Z,2.87
2023-03-02T18:26:43.832Z,2.82
2023-03-02T18:29:12.877Z,2.75
2023-03-02T18:31:42.034Z,2.65
2023-03-02T18:34:11.292Z,2.58
2023-03-02T18:36:40.783Z,2.58
2023-03-02T18:39:10.110Z,2.59
2023-03-02T18:41:38.533Z,2.59
2023-03-02T18:44:07.218Z,2.53
2023-03-02T18:46:42.413Z,2.50
2023-03-02T18:49:11.580Z,2.46
2023-03-02T18:51:41.100Z,2.42
2023-03-02T18:54:10.607Z,2.39
2023-03-02T18:56:41.218Z,2.34
2023-03-02T18:59:11.356Z,2.27
2023-03-02T19:01:45.249Z,2.19
2023-03-02T19:04:15.180Z,2.13
2023-03-02T19:06:43.578Z,2.07
2023-03-02T19:09:11.820Z,2.04
2023-03-02T19:11:40.831Z,2.01
2023-03-02T19:14:09.186Z,1.98
2023-03-02T19:16:37.698Z,1.95
2023-03-02T19:19:06.165Z,1.92
2023-03-02T19:21:34.721Z,1.89
2023-03-02T19:24:03.249Z,1.89
2023-03-02T19:26:31.844Z,1.88
2023-03-02T19:29:01.103Z,1.88
2023-03-02T19:31:31.623Z,1.85
2023-03-02T19:34:00.706Z,1.85
2023-03-02T19:36:29.192Z,1.78
2023-03-02T19:39:01.301Z,1.73
2023-03-02T19:41:30.102Z,1.69
2023-03-02T19:43:58.954Z,1.64
2023-03-02T19:46:27.510Z,1.60
2023-03-02T19:48:56.017Z,1.54
2023-03-02T19:51:24.507Z,1.49
2023-03-02T19:53:53.272Z,1.47
2023-03-02T19:56:21.965Z,1.47
2023-03-02T19:58:54.430Z,1.44
2023-03-02T20:01:25.288Z,1.41
2023-03-02T20:03:56.678Z,1.41
2023-03-02T20:06:30.749Z,1.41
2023-03-02T20:09:02.744Z,1.40
2023-03-02T20:11:31.817Z,1.39
2023-03-02T20:14:03.880Z,1.38
2023-03-02T20:16:36.384Z,1.33
2023-03-02T20:19:06.387Z,1.29
2023-03-02T20:21:37.989Z,1.29
2023-03-02T20:24:07.649Z,1.29
2023-03-02T20:26:37.510Z,1.28
2023-03-02T20:29:06.616Z,1.27
2023-03-02T20:31:37.523Z,1.27
2023-03-02T20:34:09.526Z,1.25
2023-03-02T20:36:39.245Z,1.24
2023-03-02T20:39:34.287Z,1.20
2023-03-02T20:42:04.805Z,1.13
2023-03-02T20:44:34.596Z,1.11
2023-03-02T20:47:11.098Z,1.11
2023-03-02T20:49:39.752Z,1.11
2023-03-02T20:52:09.573Z,1.12
2023-03-02T20:54:42.294Z,1.10
2023-03-02T20:57:17.260Z,1.07
2023-03-02T20:59:46.603Z,1.04
2023-03-02T21:02:18.185Z,0.98
2023-03-02T21:04:48.142Z,0.95
2023-03-02T21:07:17.845Z,0.97
2023-03-02T21:09:46.369Z,0.97
2023-03-02T21:12:15.923Z,0.97
2023-03-02T21:14:45.808Z,0.99
2023-03-02T21:17:15.104Z,1.01
2023-03-02T21:19:44.856Z,1.04
2023-03-02T21:22:13.959Z,1.07
2023-03-02T21:24:43.048Z,1.06
2023-03-02T21:27:12.800Z,1.05
2023-03-02T21:29:41.450Z,1.04
2023-03-02T21:32:10.856Z,1.06
2023-03-02T21:34:40.381Z,1.09
2023-03-02T21:37:08.960Z,1.12
2023-03-02T21:39:37.802Z,1.15
2023-03-02T21:42:07.657Z,1.11
2023-03-02T21:44:36.389Z,1.06
2023-03-02T21:47:05.108Z,1.06
2023-03-02T21:49:34.301Z,1.07
2023-03-02T21:52:04.344Z,1.09
2023-03-02T21:54:33.002Z,1.11
2023-03-02T21:57:01.607Z,1.10
2023-03-02T21:59:31.599Z,1.08
2023-03-02T22:02:01.419Z,1.09
2023-03-02T22:04:30.592Z,1.07
2023-03-02T22:06:59.143Z,1.05
2023-03-02T22:09:28.606Z,1.06
2023-03-02T22:11:58.258Z,1.06
2023-03-02T22:14:28.098Z,1.05
2023-03-02T22:16:58.959Z,1.02
2023-03-02T22:19:30.347Z,0.99
2023-03-02T22:22:01.217Z,0.97
2023-03-02T22:24:32.655Z,0.94
2023-03-02T22:27:20.624Z,0.93
2023-03-02T22:29:51.119Z,0.94
2023-03-02T22:32:20.090Z,0.94
2023-03-02T22:34:52.463Z,0.93
2023-03-02T22:37:24.571Z,0.93
2023-03-02T22:40:01.275Z,0.93
2023-03-02T22:42:31.167Z,0.91
2023-03-02T22:45:23.066Z,0.91
2023-03-02T22:47:54.846Z,0.91
2023-03-02T22:50:31.182Z,0.92
2023-03-02T22:53:24.020Z,0.88
2023-03-02T22:55:59.890Z,0.87
2023-03-02T22:58:37.783Z,0.87
2023-03-02T23:01:17.411Z,0.84
2023-03-02T23:03:49.320Z,0.83
2023-03-02T23:06:33.429Z,0.81
2023-03-02T23:09:07.328Z,0.77
2023-03-02T23:11:42.245Z,0.77
2023-03-02T23:14:19.920Z,0.74
2023-03-02T23:16:53.698Z,0.71
2023-03-02T23:19:23.331Z,0.69
2023-03-02T23:21:52.843Z,0.65
2023-03-02T23:24:22.517Z,0.58
2023-03-02T23:26:53.583Z,0.54
2023-03-02T23:29:23.866Z,0.52
2023-03-02T23:31:53.917Z,0.48
2023-03-02T23:34:24.582Z,0.45
2023-03-02T23:36:54.596Z,0.42
2023-03-02T23:39:23.954Z,0.43
2023-03-02T23:41:53.446Z,0.46
2023-03-02T23:44:23.767Z,0.41
2023-03-02T23:46:53.619Z,0.37
2023-03-02T23:49:23.286Z,0.37
2023-03-02T23:51:52.680Z,0.39
2023-03-02T23:54:21.817Z,0.40
2023-03-02T23:56:51.583Z,0.42
2023-03-02T23:59:20.908Z,0.39
